createdAt,value
2019-03-10T00:01:48.682Z,48.52
2019-03-10T00:04:16.912Z,34.50
2019-03-10T00:06:45.152Z,42.50
2019-03-10T00:09:13.410Z,38.20
2019-03-10T00:11:41.636Z,39.40
2019-03-10T00:14:09.913Z,42.85
2019-03-10T00:16:38.164Z,53.80
2019-03-10T00:19:06.398Z,42.43
2019-03-10T00:21:34.639Z,48.92
2019-03-10T00:24:02.909Z,35.85
2019-03-10T00:26:31.136Z,44.48
2019-03-10T00:28:59.678Z,39.92
2019-03-10T00:31:27.962Z,37.98
2019-03-10T00:33:56.228Z,40.00
2019-03-10T00:36:24.497Z,41.88
2019-03-10T00:38:58.844Z,36.65
2019-03-10T00:41:36.290Z,39.90
2019-03-10T00:44:42.776Z,47.08
2019-03-10T00:47:47.717Z,45.43
2019-03-10T00:50:31.236Z,51.50
2019-03-10T00:52:59.673Z,44.13
2019-03-10T00:55:27.939Z,57.62
2019-03-10T00:57:56.167Z,42.27
2019-03-10T01:00:24.409Z,51.02
2019-03-10T01:02:52.626Z,43.28
2019-03-10T01:05:20.910Z,48.90
2019-03-10T01:07:49.149Z,38.98
2019-03-10T01:10:17.396Z,42.17
2019-03-10T01:12:45.633Z,46.28
2019-03-10T01:15:14.436Z,48.13
2019-03-10T01:17:42.646Z,40.10
2019-03-10T01:20:11.929Z,44.65
2019-03-10T01:22:40.256Z,43.50
2019-03-10T01:25:10.702Z,47.25
2019-03-10T01:27:39.290Z,44.17
2019-03-10T01:30:19.031Z,52.80
2019-03-10T01:32:50.522Z,41.50
2019-03-10T01:35:21.715Z,39.60
2019-03-10T01:37:49.976Z,38.10
2019-03-10T01:40:18.300Z,44.42
2019-03-10T01:42:46.548Z,40.85
2019-03-10T01:45:14.798Z,39.33
2019-03-10T01:47:43.023Z,41.25
2019-03-10T01:50:13.118Z,42.98
2019-03-10T01:52:41.393Z,42.08
2019-03-10T01:55:11.174Z,51.23
2019-03-10T01:57:39.404Z,38.92
2019-03-10T02:00:11.206Z,40.00
2019-03-10T02:02:39.450Z,48.00
2019-03-10T02:05:07.766Z,41.77
2019-03-10T02:07:35.986Z,38.88
2019-03-10T02:10:07.046Z,49.55
2019-03-10T02:12:36.050Z,35.45
2019-03-10T02:15:07.054Z,33.08
2019-03-10T02:17:35.262Z,38.10
2019-03-10T02:20:05.650Z,33.48
2019-03-10T02:22:33.870Z,41.17
2019-03-10T02:25:02.265Z,42.27
2019-03-10T02:27:30.508Z,45.70
2019-03-10T02:29:58.744Z,44.63
2019-03-10T02:32:26.970Z,34.30
2019-03-10T02:34:55.204Z,45.60
2019-03-10T02:37:23.430Z,41.63
2019-03-10T02:39:51.692Z,43.13
2019-03-10T02:42:19.910Z,34.73
2019-03-10T02:44:48.163Z,33.55
2019-03-10T02:47:16.398Z,39.53
2019-03-10T02:49:44.626Z,35.33
2019-03-10T02:52:12.851Z,40.67
2019-03-10T02:54:41.083Z,45.63
2019-03-10T02:57:09.324Z,42.55
2019-03-10T02:59:37.580Z,47.98
2019-03-10T03:02:05.778Z,44.23
2019-03-10T03:04:34.044Z,41.70
2019-03-10T03:07:02.262Z,46.05
2019-03-10T03:09:30.527Z,44.05
2019-03-10T03:11:58.762Z,48.20
2019-03-10T03:14:27.003Z,41.58
2019-03-10T03:16:55.246Z,56.88
2019-03-10T03:19:23.511Z,51.83
2019-03-10T03:21:51.850Z,42.23
2019-03-10T03:24:20.110Z,42.83
2019-03-10T03:26:48.341Z,45.35
2019-03-10T03:29:16.596Z,47.70
2019-03-10T03:31:44.876Z,41.58
2019-03-10T03:34:13.106Z,52.62
2019-03-10T03:36:41.322Z,49.35
2019-03-10T03:39:18.291Z,47.55
2019-03-10T03:41:46.573Z,52.13
2019-03-10T03:44:14.834Z,51.48
2019-03-10T03:46:43.070Z,65.90
2019-03-10T03:49:12.004Z,89.45
2019-03-10T03:51:40.268Z,75.92
2019-03-10T03:54:08.547Z,63.25
2019-03-10T03:56:36.817Z,70.45
2019-03-10T03:59:05.075Z,64.22
2019-03-10T04:01:35.023Z,60.10
2019-03-10T04:04:03.244Z,63.33
2019-03-10T04:06:31.547Z,64.95
2019-03-10T04:08:59.800Z,52.75
2019-03-10T04:11:28.033Z,51.92
2019-03-10T04:13:56.264Z,62.35
2019-03-10T04:16:24.510Z,54.88
2019-03-10T04:18:52.718Z,63.30
2019-03-10T04:21:20.947Z,50.43
2019-03-10T04:23:49.177Z,53.58
2019-03-10T04:26:17.405Z,48.55
2019-03-10T04:28:45.681Z,46.58
2019-03-10T04:31:14.540Z,69.17
2019-03-10T04:33:42.753Z,61.83
2019-03-10T04:36:10.962Z,47.20
2019-03-10T04:38:39.212Z,67.85
2019-03-10T04:41:07.455Z,60.48
2019-03-10T04:43:35.682Z,69.37
2019-03-10T04:46:03.918Z,47.20
2019-03-10T04:48:32.152Z,59.53
2019-03-10T04:51:00.425Z,50.60
2019-03-10T04:53:28.632Z,52.58
2019-03-10T04:55:58.502Z,55.35
2019-03-10T04:58:26.712Z,44.55
2019-03-10T05:00:56.628Z,43.83
2019-03-10T05:03:24.838Z,45.80
2019-03-10T05:05:53.088Z,43.95
2019-03-10T05:08:21.343Z,44.20
2019-03-10T05:10:49.554Z,48.92
2019-03-10T05:13:17.799Z,44.00
2019-03-10T05:15:46.959Z,44.30
2019-03-10T05:18:15.200Z,41.65
2019-03-10T05:20:43.473Z,30.52
2019-03-10T05:23:29.875Z,37.95
2019-03-10T05:25:58.254Z,38.30
2019-03-10T05:28:26.954Z,43.50
2019-03-10T05:30:55.180Z,44.45
2019-03-10T05:33:23.405Z,41.33
2019-03-10T05:35:51.630Z,43.10
2019-03-10T05:38:19.855Z,51.90
2019-03-10T05:40:48.691Z,35.98
2019-03-10T05:43:16.940Z,40.15
2019-03-10T05:45:45.145Z,41.10
2019-03-10T05:48:13.383Z,60.43
2019-03-10T05:50:41.629Z,36.35
2019-03-10T05:53:09.866Z,46.35
2019-03-10T05:55:38.092Z,36.80
2019-03-10T05:58:06.327Z,66.07
2019-03-10T06:00:42.115Z,34.48
2019-03-10T06:03:04.516Z,52.45
2019-03-10T06:05:32.763Z,47.07
2019-03-10T06:08:00.997Z,44.60
2019-03-10T06:10:29.238Z,47.80
2019-03-10T06:12:57.479Z,54.35
2019-03-10T06:15:25.721Z,54.05
2019-03-10T06:17:54.003Z,40.63
2019-03-10T06:20:22.247Z,42.58
2019-03-10T06:22:51.215Z,42.03
2019-03-10T06:25:19.450Z,44.18
2019-03-10T06:27:47.666Z,36.15
2019-03-10T06:30:15.903Z,42.43
2019-03-10T06:32:44.138Z,46.00
2019-03-10T06:35:12.363Z,39.30
2019-03-10T06:37:40.623Z,40.23
2019-03-10T06:40:08.850Z,37.40
2019-03-10T06:42:37.090Z,38.23
2019-03-10T06:45:06.613Z,38.40
2019-03-10T06:47:34.847Z,31.73
2019-03-10T06:50:03.906Z,38.65
2019-03-10T06:52:32.135Z,44.08
2019-03-10T06:55:00.449Z,37.48
2019-03-10T06:57:28.675Z,33.58
2019-03-10T06:59:56.920Z,33.33
2019-03-10T07:02:25.210Z,42.93
2019-03-10T07:04:53.779Z,39.42
2019-03-10T07:07:22.057Z,30.60
2019-03-10T07:09:50.286Z,31.52
2019-03-10T07:12:18.544Z,29.30
2019-03-10T07:14:46.843Z,42.93
2019-03-10T07:17:15.103Z,40.85
2019-03-10T07:19:43.353Z,35.92
2019-03-10T07:22:11.598Z,36.05
2019-03-10T07:24:39.838Z,26.97
2019-03-10T07:27:08.096Z,24.72
2019-03-10T07:29:40.977Z,34.85
2019-03-10T07:32:10.902Z,32.50
2019-03-10T07:34:57.329Z,26.70
2019-03-10T07:37:39.679Z,24.16
2019-03-10T07:40:15.252Z,27.73
2019-03-10T07:42:53.933Z,18.70
2019-03-10T07:45:26.719Z,23.65
2019-03-10T07:47:59.574Z,23.65
2019-03-10T07:50:38.692Z,27.90
2019-03-10T07:53:17.283Z,24.15
2019-03-10T07:55:53.154Z,19.30
2019-03-10T07:58:23.014Z,30.52
2019-03-10T08:00:52.898Z,17.12
2019-03-10T08:03:26.911Z,19.17
2019-03-10T08:06:15.310Z,26.82
2019-03-10T08:08:45.186Z,29.98
2019-03-10T08:11:20.711Z,18.60
2019-03-10T08:14:06.673Z,21.35
2019-03-10T08:16:36.567Z,25.97
2019-03-10T08:19:22.448Z,19.33
2019-03-10T08:21:55.103Z,26.10
2019-03-10T08:24:33.475Z,16.40
2019-03-10T08:27:03.370Z,22.73
2019-03-10T08:29:44.791Z,32.60
2019-03-10T08:32:14.690Z,19.70
2019-03-10T08:34:44.550Z,20.60
2019-03-10T08:37:17.343Z,31.02
2019-03-10T08:39:56.252Z,18.42
2019-03-10T08:42:26.131Z,25.35
2019-03-10T08:44:59.568Z,22.73
2019-03-10T08:47:31.892Z,22.20
2019-03-10T08:50:02.342Z,23.80
2019-03-10T08:52:32.367Z,18.52
2019-03-10T08:55:05.383Z,23.36
2019-03-10T08:57:35.239Z,18.80
2019-03-10T09:00:23.321Z,19.43
2019-03-10T09:02:56.074Z,20.68
2019-03-10T09:05:41.252Z,13.18
2019-03-10T09:08:16.854Z,19.50
2019-03-10T09:10:49.385Z,24.40
2019-03-10T09:13:19.271Z,25.40
2019-03-10T09:15:55.125Z,20.70
2019-03-10T09:18:34.126Z,14.38
2019-03-10T09:21:04.113Z,22.40
2019-03-10T09:23:34.336Z,16.46
2019-03-10T09:26:07.395Z,21.25
2019-03-10T09:28:55.114Z,18.85
2019-03-10T09:31:27.498Z,13.10
2019-03-10T09:34:00.082Z,12.40
2019-03-10T09:36:29.953Z,14.47
2019-03-10T09:39:15.729Z,12.88
2019-03-10T09:41:51.260Z,10.13
2019-03-10T09:44:37.341Z,10.90
2019-03-10T09:47:09.785Z,7.97
2019-03-10T09:49:48.445Z,11.10
2019-03-10T09:52:33.363Z,7.53
2019-03-10T09:55:12.256Z,10.35
2019-03-10T09:57:58.370Z,15.68
2019-03-10T10:00:36.997Z,6.33
2019-03-10T10:03:09.665Z,9.95
2019-03-10T10:05:42.430Z,10.90
2019-03-10T10:08:14.845Z,8.98
2019-03-10T10:10:50.579Z,10.15
2019-03-10T10:13:29.287Z,9.30
2019-03-10T10:16:04.636Z,13.40
2019-03-10T10:18:34.505Z,15.03
2019-03-10T10:21:20.759Z,18.10
2019-03-10T10:23:53.187Z,12.25
2019-03-10T10:26:41.124Z,14.07
2019-03-10T10:29:27.142Z,9.18
2019-03-10T10:31:57.034Z,17.27
2019-03-10T10:34:26.926Z,19.55
2019-03-10T10:36:56.794Z,15.83
2019-03-10T10:39:43.143Z,17.05
2019-03-10T10:42:29.384Z,17.12
2019-03-10T10:45:02.364Z,18.35
2019-03-10T10:47:32.245Z,19.20
2019-03-10T10:50:02.190Z,22.55
2019-03-10T10:52:41.434Z,20.43
2019-03-10T10:55:23.178Z,15.45
2019-03-10T10:57:58.848Z,18.42
2019-03-10T11:00:28.748Z,24.00
2019-03-10T11:03:04.452Z,19.27
2019-03-10T11:05:39.917Z,22.60
2019-03-10T11:08:13.281Z,19.07
2019-03-10T11:10:43.151Z,20.17
2019-03-10T11:13:18.814Z,18.02
2019-03-10T11:16:00.941Z,14.63
2019-03-10T11:18:40.036Z,14.30
2019-03-10T11:21:28.116Z,14.93
2019-03-10T11:23:58.024Z,14.13
2019-03-10T11:26:28.205Z,18.98
2019-03-10T11:29:07.502Z,17.70
2019-03-10T11:31:37.390Z,15.18
2019-03-10T11:34:09.704Z,20.15
2019-03-10T11:36:54.900Z,14.75
2019-03-10T11:39:30.864Z,21.40
2019-03-10T11:42:03.682Z,12.18
2019-03-10T11:44:45.779Z,24.50
2019-03-10T11:47:15.680Z,11.30
2019-03-10T11:49:51.681Z,22.77
2019-03-10T11:52:30.730Z,18.30
2019-03-10T11:55:00.646Z,21.00
2019-03-10T11:57:39.614Z,17.30
2019-03-10T12:00:21.288Z,19.70
2019-03-10T12:03:09.573Z,18.70
2019-03-10T12:05:57.380Z,21.48
2019-03-10T12:08:44.992Z,17.05
2019-03-10T12:11:13.227Z,14.30
2019-03-10T12:13:41.482Z,15.43
2019-03-10T12:16:09.926Z,15.68
2019-03-10T12:18:38.267Z,14.35
2019-03-10T12:21:06.520Z,19.87
2019-03-10T12:23:35.140Z,19.62
2019-03-10T12:26:03.494Z,14.40
2019-03-10T12:28:32.147Z,10.82
2019-03-10T12:31:00.394Z,10.63
2019-03-10T12:33:28.663Z,10.60
2019-03-10T12:35:56.908Z,16.12
2019-03-10T12:38:25.163Z,12.20
2019-03-10T12:40:53.424Z,13.72
2019-03-10T12:43:21.692Z,14.23
2019-03-10T12:45:49.965Z,12.43
2019-03-10T12:48:18.291Z,18.12
2019-03-10T12:50:46.583Z,17.90
2019-03-10T12:53:15.080Z,16.94
2019-03-10T12:55:43.331Z,20.75
2019-03-10T12:58:11.554Z,17.87
2019-03-10T13:00:39.828Z,26.85
2019-03-10T13:03:08.076Z,25.52
2019-03-10T13:05:36.306Z,27.30
2019-03-10T13:08:04.567Z,24.10
2019-03-10T13:10:32.825Z,29.72
2019-03-10T13:13:01.066Z,23.92
2019-03-10T13:15:29.326Z,21.15
2019-03-10T13:17:57.564Z,26.23
2019-03-10T13:20:28.670Z,17.37
2019-03-10T13:22:55.778Z,17.80
2019-03-10T13:25:24.016Z,17.82
2019-03-10T13:27:52.268Z,24.02
2019-03-10T13:30:20.569Z,14.13
2019-03-10T13:32:48.830Z,15.08
2019-03-10T13:35:17.911Z,9.88
2019-03-10T13:37:46.178Z,6.50
2019-03-10T13:40:14.943Z,8.53
2019-03-10T13:42:43.175Z,5.87
2019-03-10T13:45:13.090Z,7.15
2019-03-10T13:47:41.338Z,13.08
2019-03-10T13:50:12.808Z,6.37
2019-03-10T13:52:41.089Z,6.12
2019-03-10T13:55:09.774Z,6.90
2019-03-10T13:57:38.000Z,8.68
2019-03-10T14:00:25.627Z,19.97
2019-03-10T14:02:53.931Z,7.90
2019-03-10T14:05:22.300Z,10.58
2019-03-10T14:07:50.553Z,9.65
2019-03-10T14:10:18.779Z,8.90
2019-03-10T14:12:47.000Z,8.58
2019-03-10T14:15:16.966Z,9.20
2019-03-10T14:17:45.224Z,11.63
2019-03-10T14:20:14.655Z,10.53
2019-03-10T14:22:43.177Z,7.90
2019-03-10T14:25:13.538Z,5.22
2019-03-10T14:27:41.772Z,7.10
2019-03-10T14:30:12.473Z,15.47
2019-03-10T14:32:40.709Z,4.22
2019-03-10T14:37:32.021Z,8.50
2019-03-10T14:40:00.358Z,7.65
2019-03-10T14:42:28.636Z,5.00
2019-03-10T14:44:56.860Z,6.47
2019-03-10T14:47:25.082Z,9.23
2019-03-10T14:49:53.309Z,7.00
2019-03-10T14:52:27.547Z,7.33
2019-03-10T14:54:55.772Z,5.37
2019-03-10T14:57:24.017Z,4.47
2019-03-10T14:59:53.221Z,3.80
2019-03-10T15:02:21.494Z,7.70
2019-03-10T15:04:49.739Z,9.00
2019-03-10T15:07:17.960Z,6.87
2019-03-10T15:09:46.212Z,6.75
2019-03-10T15:12:14.419Z,4.83
2019-03-10T15:14:42.660Z,3.67
2019-03-10T15:17:10.912Z,6.47
2019-03-10T15:19:39.141Z,7.78
2019-03-10T15:22:07.404Z,4.37
2019-03-10T15:24:35.624Z,5.20
2019-03-10T15:27:04.085Z,3.20
2019-03-10T15:29:32.879Z,5.10
2019-03-10T15:32:01.149Z,8.98
2019-03-10T15:34:29.395Z,7.20
2019-03-10T15:36:57.630Z,2.87
2019-03-10T15:39:27.291Z,7.15
2019-03-10T15:41:55.841Z,4.20
2019-03-10T15:44:24.110Z,4.35
2019-03-10T15:46:52.377Z,5.83
2019-03-10T15:49:20.610Z,2.77
2019-03-10T15:51:48.878Z,2.10
2019-03-10T15:54:17.098Z,2.20
2019-03-10T15:56:45.341Z,3.08
2019-03-10T15:59:13.568Z,1.20
2019-03-10T16:01:41.798Z,2.47
2019-03-10T16:04:15.248Z,2.45
2019-03-10T16:06:43.477Z,2.67
2019-03-10T16:09:11.715Z,6.42
2019-03-10T16:11:39.973Z,1.87
2019-03-10T16:14:08.175Z,0.95
2019-03-10T16:16:36.419Z,0.40
2019-03-10T16:19:04.645Z,1.05
2019-03-10T16:21:32.885Z,1.27
2019-03-10T16:24:01.104Z,1.67
2019-03-10T16:26:29.353Z,1.62
2019-03-10T16:28:57.588Z,1.47
2019-03-10T16:31:25.834Z,0.60
2019-03-10T16:33:54.060Z,1.92
2019-03-10T16:36:22.311Z,0.60
2019-03-10T16:39:50.954Z,1.20
2019-03-10T16:42:19.176Z,2.08
2019-03-10T16:44:47.416Z,2.12
2019-03-10T16:47:15.664Z,2.30
2019-03-10T16:49:43.900Z,2.12
2019-03-10T16:52:12.265Z,3.33
2019-03-10T16:54:40.549Z,2.65
2019-03-10T16:57:08.795Z,3.17
2019-03-10T16:59:37.021Z,2.08
2019-03-10T17:02:05.271Z,3.00
2019-03-10T17:04:33.546Z,4.55
2019-03-10T17:07:01.803Z,2.58
2019-03-10T17:09:30.021Z,3.12
2019-03-10T17:11:58.273Z,3.00
2019-03-10T17:14:26.504Z,2.17
2019-03-10T17:16:54.747Z,2.72
2019-03-10T17:19:22.977Z,1.87
2019-03-10T17:21:51.237Z,1.75
2019-03-10T17:24:19.482Z,5.83
2019-03-10T17:26:47.756Z,1.70
2019-03-10T17:29:15.975Z,3.42
2019-03-10T17:31:44.212Z,2.75
2019-03-10T17:34:12.628Z,5.70
2019-03-10T17:36:40.867Z,5.40
2019-03-10T17:39:09.085Z,5.17
2019-03-10T17:41:37.355Z,2.93
2019-03-10T17:44:05.609Z,6.53
2019-03-10T17:46:33.851Z,5.35
2019-03-10T17:49:02.276Z,6.42
2019-03-10T17:51:30.507Z,3.58
2019-03-10T17:53:58.754Z,12.60
2019-03-10T17:56:26.961Z,4.97
2019-03-10T17:58:55.330Z,6.90
2019-03-10T18:01:23.590Z,3.40
2019-03-10T18:03:52.849Z,4.95
2019-03-10T18:06:21.074Z,4.95
2019-03-10T18:08:49.326Z,4.15
2019-03-10T18:11:17.631Z,3.75
2019-03-10T18:13:45.851Z,10.45
2019-03-10T18:16:14.078Z,5.47
2019-03-10T18:18:42.320Z,4.47
2019-03-10T18:21:10.549Z,6.97
2019-03-10T18:23:38.757Z,4.83
2019-03-10T18:26:06.970Z,8.28
2019-03-10T18:28:35.207Z,4.80
2019-03-10T18:31:03.432Z,6.60
2019-03-10T18:33:31.667Z,3.77
2019-03-10T18:35:59.891Z,4.58
2019-03-10T18:38:28.142Z,2.40
2019-03-10T18:40:56.416Z,5.40
2019-03-10T18:43:25.234Z,3.35
2019-03-10T18:45:53.582Z,4.45
2019-03-10T18:48:21.805Z,5.83
2019-03-10T18:50:50.082Z,5.67
2019-03-10T18:53:18.379Z,6.92
2019-03-10T18:55:46.619Z,7.63
2019-03-10T18:58:15.096Z,4.20
2019-03-10T19:00:43.325Z,6.35
2019-03-10T19:03:11.558Z,2.15
2019-03-10T19:05:39.820Z,5.87
2019-03-10T19:08:08.079Z,9.15
2019-03-10T19:10:36.384Z,3.40
2019-03-10T19:13:04.639Z,3.15
2019-03-10T19:15:32.851Z,5.58
2019-03-10T19:18:01.119Z,5.78
2019-03-10T19:20:29.345Z,2.22
2019-03-10T19:22:57.596Z,4.67
2019-03-10T19:25:25.815Z,3.02
2019-03-10T19:27:54.052Z,2.35
2019-03-10T19:30:22.829Z,6.50
2019-03-10T19:32:51.072Z,5.22
2019-03-10T19:35:19.317Z,5.90
2019-03-10T19:37:47.557Z,5.35
2019-03-10T19:40:20.837Z,12.80
2019-03-10T19:42:49.073Z,5.20
2019-03-10T19:45:21.283Z,5.67
2019-03-10T19:47:49.512Z,5.00
2019-03-10T19:50:27.025Z,5.08
2019-03-10T19:52:54.914Z,8.08
2019-03-10T19:55:23.139Z,2.85
2019-03-10T19:57:51.376Z,3.33
2019-03-10T20:00:20.418Z,4.35
2019-03-10T20:02:48.697Z,5.53
2019-03-10T20:05:16.978Z,5.20
2019-03-10T20:07:45.376Z,4.22
2019-03-10T20:10:15.164Z,12.75
2019-03-10T20:12:43.403Z,6.72
2019-03-10T20:15:14.369Z,5.30
2019-03-10T20:17:42.649Z,6.75
2019-03-10T20:20:13.319Z,8.24
2019-03-10T20:22:41.725Z,2.98
2019-03-10T20:25:11.804Z,4.65
2019-03-10T20:27:40.034Z,6.37
2019-03-10T20:30:16.195Z,9.53
2019-03-10T20:32:44.467Z,5.50
2019-03-10T20:35:12.720Z,3.15
2019-03-10T20:37:40.922Z,6.87
2019-03-10T20:40:12.411Z,11.22
2019-03-10T20:42:40.633Z,7.33
2019-03-10T20:45:10.016Z,6.17
2019-03-10T20:47:38.232Z,10.48
2019-03-10T20:50:16.714Z,19.62
2019-03-10T20:52:44.926Z,6.53
2019-03-10T20:55:14.125Z,9.20
2019-03-10T20:57:42.340Z,8.70
2019-03-10T21:00:16.442Z,29.80
2019-03-10T21:02:44.724Z,10.18
2019-03-10T21:05:12.969Z,7.87
2019-03-10T21:07:41.221Z,11.03
2019-03-10T21:10:17.945Z,5.80
2019-03-10T21:12:46.279Z,10.10
2019-03-10T21:15:21.769Z,12.24
2019-03-10T21:17:49.984Z,11.25
2019-03-10T21:20:23.342Z,11.43
2019-03-10T21:22:51.591Z,12.00
2019-03-10T21:25:30.657Z,12.98
2019-03-10T21:27:58.878Z,10.75
2019-03-10T21:30:32.031Z,11.95
2019-03-10T21:33:00.243Z,12.73
2019-03-10T21:35:28.488Z,10.78
2019-03-10T21:37:56.742Z,16.82
2019-03-10T21:40:33.286Z,11.13
2019-03-10T21:43:01.499Z,9.17
2019-03-10T21:45:29.775Z,11.78
2019-03-10T21:47:58.055Z,12.95
2019-03-10T21:56:25.447Z,15.05
2019-03-10T21:58:53.707Z,18.60
2019-03-10T22:01:21.951Z,15.35
2019-03-10T22:03:50.162Z,22.17
2019-03-10T22:06:18.410Z,15.55
2019-03-10T22:08:46.650Z,19.65
2019-03-10T22:11:14.897Z,14.45
2019-03-10T22:13:46.876Z,19.05
2019-03-10T22:16:13.083Z,19.90
2019-03-10T22:18:41.322Z,16.15
2019-03-10T22:21:09.569Z,19.27
2019-03-10T22:23:37.786Z,17.70
2019-03-10T22:26:06.038Z,16.77
2019-03-10T22:28:34.313Z,17.60
2019-03-10T22:31:02.578Z,25.62
2019-03-10T22:33:30.824Z,26.20
2019-03-10T22:35:59.058Z,24.27
2019-03-10T22:38:27.297Z,12.40
2019-03-10T22:40:55.615Z,19.48
2019-03-10T22:43:23.869Z,16.05
2019-03-10T22:45:52.128Z,15.25
2019-03-10T22:48:20.999Z,17.76
2019-03-10T22:50:49.239Z,25.80
2019-03-10T22:53:17.478Z,17.48
2019-03-10T22:55:45.724Z,14.90
2019-03-10T22:58:13.966Z,11.38
2019-03-10T23:00:46.442Z,20.55
2019-03-10T23:03:14.690Z,10.38
2019-03-10T23:05:42.947Z,16.80
2019-03-10T23:08:11.315Z,11.83
2019-03-10T23:10:39.561Z,15.85
2019-03-10T23:13:07.842Z,11.08
2019-03-10T23:15:36.062Z,8.83
2019-03-10T23:18:04.319Z,27.32
2019-03-10T23:20:32.549Z,16.20
2019-03-10T23:23:00.815Z,17.27
2019-03-10T23:25:29.029Z,9.65
2019-03-10T23:27:57.278Z,28.45
2019-03-10T23:30:25.527Z,16.40
2019-03-10T23:32:53.767Z,9.73
2019-03-10T23:35:21.995Z,19.65
2019-03-10T23:37:50.245Z,16.10
2019-03-10T23:40:19.259Z,19.90
2019-03-10T23:42:47.537Z,16.40
2019-03-10T23:45:19.022Z,16.07
2019-03-10T23:47:47.388Z,19.37
2019-03-10T23:50:16.614Z,23.40
2019-03-10T23:52:44.846Z,9.70
2019-03-10T23:55:13.735Z,13.72
2019-03-10T23:57:41.938Z,8.95
